Terminal Aerodrome Forecast
Issued by NWS Albuquerque, NM

Home | Current Version | Previous Version | Text Only | Print | Product List | Glossary On
Versions: 1 2 3 4 5 6 7 8 9 10 11 12 13 14 15 16 17 18 19 20 21 22
000
FTUS45 KABQ 010500 RRA
TAFABQ
TAF
KABQ 010542Z 0106/0206 35007KT P6SM FEW025 SCT060 SCT200
     FM010800 35007KT P6SM SCT025
      TEMPO 0109/0113 4SM BR BKN012
     FM011800 VRB06KT P6SM FEW030
     FM020200 VRB05KT P6SM SCT250=

USA.gov is the U.S. government's official web portal to all federal, state and local government web resources and services.